Darstellungsparameter: Aktuell verwendete Einstellungen:
Skalierung der Graphiken ... ?
xyx+y,   Skalierungsfaktor:      Skalierung: Modus: x, Faktor: 1
Darstellungszeitraum ... ?
Vom - - bis: - -   Zeitraum: 21.03.2010 - 22.03.2010
Min/Max/Avg-Anzeige ... ?
Zeige MMA aktuell
Zeige MMA Monat
Zeige MMA alles
Zeige --A aktuell
Zeige --A Monat
Zeige --A alles
Keine MMA-Anzeige
MMA:
Average (ber die Originaldaten)
MMA-Basis: 21.03.2010 - 22.03.2010
Quicknavigation für Darstellung... ?
Tage:      1T, 2T, 3T, 5T -1T -2T -3T -5T +1T +2T +3T +5T
Wochen: 1W, 2W, 3W -1W -2W -3W +1W +2W +3W
Monate: 1M, 3M, 6M -1M -3M -6M +1M +3M +6M
Jahre:    1J, 3J, 5J, 10J -1J -3J -5J -10J +1J +3J +5J +10J
Nutze für die Darstellung ... ?
Originaldaten oder Mittelwerte auf ...
Stundenbasis Tagesbasis Wochenbasis
Monatsbasis Jahresbasis      Datenbasis: Original-Daten
Darstellen als:
Statistik (Auto) Statistik J:M      Darstellung:
Zur Graphik,    zurück zur Übersicht aller Sensoren.
 
Tabellarische Datenbersicht: ?
 
Sensor: Nr:Datum:Temp:Abs-Feuchte:Windchill:Wind:
Aussen-T/F 1 21-03-2010 00:04:02 12.1 C 9.44 g/m*3 12.1 C 0 km/h
2 21-03-2010 00:16:02 12 C 9.38 g/m*3 12 C 0 km/h
3 21-03-2010 00:28:02 12.1 C 9.54 g/m*3 12.1 C 0 km/h
4 21-03-2010 00:40:02 12.1 C 9.54 g/m*3 12.1 C 0 km/h
5 21-03-2010 00:52:02 12.1 C 9.54 g/m*3 12.1 C 0 km/h
6 21-03-2010 01:04:02 12 C 9.59 g/m*3 12 C 0 km/h
7 21-03-2010 01:16:02 12 C 9.59 g/m*3 12 C 0 km/h
8 21-03-2010 01:28:02 11.9 C 9.64 g/m*3 11.9 C 0 km/h
9 21-03-2010 01:40:02 11.9 C 9.64 g/m*3 11.9 C 0 km/h
10 21-03-2010 01:52:02 11.8 C 9.68 g/m*3 11.8 C 0 km/h
11 21-03-2010 02:04:02 11.8 C 9.68 g/m*3 11.8 C 0 km/h
12 21-03-2010 02:16:02 11.8 C 9.79 g/m*3 11.8 C 0 km/h
13 21-03-2010 02:28:02 11.7 C 9.73 g/m*3 11.7 C 0 km/h
14 21-03-2010 02:40:02 11.7 C 9.73 g/m*3 11.7 C 0 km/h
15 21-03-2010 02:52:02 11.5 C 9.61 g/m*3 11.5 C 0 km/h
16 21-03-2010 03:04:02 11.5 C 9.61 g/m*3 11.5 C 0 km/h
17 21-03-2010 03:16:02 11.4 C 9.55 g/m*3 11.4 C 0 km/h
18 21-03-2010 03:28:02 11.4 C 9.55 g/m*3 11.4 C 0 km/h
19 21-03-2010 03:40:03 11.5 C 9.71 g/m*3 11.5 C 0 km/h
20 21-03-2010 03:52:03 11.6 C 9.77 g/m*3 11.6 C 0 km/h
21 21-03-2010 04:04:03 11.6 C 9.77 g/m*3 11.6 C 0 km/h
22 21-03-2010 04:16:03 11.5 C 9.71 g/m*3 11.5 C 0 km/h
23 21-03-2010 04:28:03 11.6 C 9.77 g/m*3 11.6 C 0 km/h
24 21-03-2010 04:40:03 11.6 C 9.87 g/m*3 11.6 C 0 km/h
25 21-03-2010 04:52:03 11.6 C 9.87 g/m*3 11.6 C 0 km/h
Sensor: Nr:Datum:Temp:Abs-Feuchte:Windchill:Wind:
Aussen-T/F 26 21-03-2010 05:04:03 11.5 C 9.81 g/m*3 11.5 C 0 km/h
27 21-03-2010 05:16:03 11.4 C 9.75 g/m*3 11.4 C 0 km/h
28 21-03-2010 05:28:03 11.3 C 9.69 g/m*3 11.3 C 0 km/h
29 21-03-2010 05:40:03 11.3 C 9.69 g/m*3 11.3 C 0 km/h
30 21-03-2010 05:52:03 11.4 C 9.75 g/m*3 11.4 C 0 km/h
31 21-03-2010 06:04:03 11.4 C 9.65 g/m*3 11.4 C 0 km/h
32 21-03-2010 06:16:03 11.4 C 9.65 g/m*3 11.4 C 0 km/h
33 21-03-2010 06:28:03 11.4 C 9.55 g/m*3 11.4 C 0 km/h
34 21-03-2010 06:40:03 11.3 C 9.38 g/m*3 11.3 C 0 km/h
35 21-03-2010 06:52:03 11.3 C 9.38 g/m*3 11.3 C 0 km/h
36 21-03-2010 07:04:03 11.3 C 9.38 g/m*3 11.3 C 0 km/h
37 21-03-2010 07:16:03 11.3 C 9.38 g/m*3 11.3 C 0 km/h
38 21-03-2010 07:28:03 11.2 C 9.33 g/m*3 11.2 C 0 km/h
39 21-03-2010 07:40:03 11.3 C 9.49 g/m*3 11.3 C 0 km/h
40 21-03-2010 07:52:03 11.2 C 9.43 g/m*3 11.2 C 0 km/h
41 21-03-2010 08:04:04 11.5 C 9.61 g/m*3 11.5 C 0 km/h
42 21-03-2010 08:16:04 11.9 C 9.96 g/m*3 11.9 C 0 km/h
43 21-03-2010 08:28:04 12.2 C 9.93 g/m*3 12.2 C 0 km/h
44 21-03-2010 08:40:01 12.5 C 9.78 g/m*3 12.5 C 0 km/h
45 21-03-2010 08:52:02 12.4 C 9.4 g/m*3 12.4 C 0 km/h
46 21-03-2010 09:04:02 12.9 C 9.35 g/m*3 12.9 C 0 km/h
47 21-03-2010 09:16:02 13.5 C 8.89 g/m*3 13.5 C 0 km/h
48 21-03-2010 09:28:02 13.5 C 8.66 g/m*3 13.5 C 0 km/h
49 21-03-2010 09:40:01 12.7 C 8.68 g/m*3 12.7 C 0 km/h
50 21-03-2010 09:52:02 12.1 C 8.58 g/m*3 12.1 C 0 km/h
Sensor: Nr:Datum:Temp:Abs-Feuchte:Windchill:Wind:
Aussen-T/F 51 21-03-2010 10:04:01 12.4 C 8.85 g/m*3 12.4 C 0 km/h
52 21-03-2010 10:16:02 13 C 8.85 g/m*3 13 C 0 km/h
53 21-03-2010 10:28:03 13.2 C 8.15 g/m*3 13.2 C 0 km/h
54 21-03-2010 10:40:01 12.8 C 7.84 g/m*3 12.8 C 0 km/h
55 21-03-2010 10:52:02 13.2 C 7.81 g/m*3 13.2 C 0 km/h
56 21-03-2010 11:04:02 13.5 C 7.95 g/m*3 13.5 C 0 km/h
57 21-03-2010 11:16:02 13.5 C 7.84 g/m*3 13.5 C 0 km/h
58 21-03-2010 11:28:02 13.6 C 7.89 g/m*3 13.6 C 0 km/h
59 21-03-2010 11:40:03 12.5 C 8.14 g/m*3 12.5 C 0 km/h
60 21-03-2010 11:52:02 12.1 C 8.69 g/m*3 12.1 C 0 km/h
61 21-03-2010 12:04:02 11.9 C 8.9 g/m*3 11.9 C 0 km/h
62 21-03-2010 12:16:02 11.9 C 8.9 g/m*3 11.9 C 0 km/h
63 21-03-2010 12:28:02 12.4 C 9.18 g/m*3 12.4 C 0 km/h
64 21-03-2010 12:40:03 13.6 C 8.94 g/m*3 13.6 C 0 km/h
65 21-03-2010 12:52:02 13.7 C 8.29 g/m*3 13.7 C 0 km/h
66 21-03-2010 13:04:02 13.2 C 8.04 g/m*3 13.2 C 0 km/h
67 21-03-2010 13:16:02 13 C 8.05 g/m*3 13 C 0 km/h
68 21-03-2010 13:28:02 12.6 C 7.97 g/m*3 12.6 C 0 km/h
69 21-03-2010 13:40:02 12.6 C 7.97 g/m*3 12.6 C 0 km/h
70 21-03-2010 13:52:01 12.4 C 7.87 g/m*3 12.4 C 0 km/h
71 21-03-2010 14:04:02 12.4 C 7.98 g/m*3 12.4 C 0 km/h
72 21-03-2010 14:16:01 12.2 C 7.99 g/m*3 12.2 C 0 km/h
73 21-03-2010 14:28:01 11.8 C 8.42 g/m*3 11.8 C 0 km/h
74 21-03-2010 14:40:02 11.4 C 8.42 g/m*3 11.4 C 0 km/h
75 21-03-2010 14:52:02 11.5 C 8.57 g/m*3 11.5 C 0 km/h
Sensor: Nr:Datum:Temp:Abs-Feuchte:Windchill:Wind:
Aussen-T/F 76 21-03-2010 15:04:02 11.5 C 8.57 g/m*3 11.5 C 0 km/h
77 21-03-2010 15:16:01 11.5 C 8.57 g/m*3 11.5 C 0 km/h
78 21-03-2010 15:28:01 11.5 C 8.57 g/m*3 11.5 C 0 km/h
79 21-03-2010 15:40:02 11.3 C 8.57 g/m*3 11.3 C 0 km/h
80 21-03-2010 15:52:03 11.1 C 8.46 g/m*3 11.1 C 0 km/h
81 21-03-2010 16:04:03 11.1 C 8.56 g/m*3 11.1 C 0 km/h
82 21-03-2010 16:16:02 10.8 C 8.6 g/m*3 10.8 C 0 km/h
83 21-03-2010 16:28:02 10.7 C 8.74 g/m*3 10.7 C 0 km/h
84 21-03-2010 16:40:02 10.5 C 8.63 g/m*3 10.5 C 0 km/h
85 21-03-2010 16:52:02 10.5 C 8.53 g/m*3 10.5 C 0 km/h
86 21-03-2010 17:04:01 10.5 C 8.53 g/m*3 10.5 C 0 km/h
87 21-03-2010 17:16:02 10.7 C 8.45 g/m*3 10.7 C 0 km/h
88 21-03-2010 17:28:02 10.7 C 8.45 g/m*3 10.7 C 0 km/h
89 21-03-2010 17:40:02 10.7 C 8.35 g/m*3 10.7 C 0 km/h
90 21-03-2010 17:52:02 10.7 C 7.96 g/m*3 10.7 C 0 km/h
91 21-03-2010 18:04:02 10.1 C 7.66 g/m*3 10.1 C 0 km/h
92 21-03-2010 18:16:02 9.8 C 7.79 g/m*3 9.8 C 0 km/h
93 21-03-2010 18:28:02 9.5 C 7.74 g/m*3 9.5 C 0 km/h
94 21-03-2010 18:40:03 9.4 C 7.69 g/m*3 9.4 C 0 km/h
95 21-03-2010 18:52:02 9.5 C 7.74 g/m*3 9.5 C 0 km/h
96 21-03-2010 19:04:02 9.6 C 7.79 g/m*3 9.6 C 0 km/h
97 21-03-2010 19:16:01 9.6 C 7.79 g/m*3 9.6 C 0 km/h
98 21-03-2010 19:28:01 9.5 C 7.74 g/m*3 9.5 C 0 km/h
99 21-03-2010 19:40:02 9.3 C 7.64 g/m*3 9.3 C 0 km/h
100 21-03-2010 19:52:02 9.3 C 7.73 g/m*3 9.3 C 0 km/h
Sensor: Nr:Datum:Temp:Abs-Feuchte:Windchill:Wind:
Aussen-T/F 101 21-03-2010 20:04:02 9.3 C 7.73 g/m*3 9.3 C 0 km/h
102 21-03-2010 20:16:02 9.4 C 7.78 g/m*3 9.4 C 0 km/h
103 21-03-2010 20:28:02 9.5 C 7.92 g/m*3 9.5 C 0 km/h
104 21-03-2010 20:40:02 9.5 C 7.92 g/m*3 9.5 C 0 km/h
105 21-03-2010 20:52:02 9.5 C 7.83 g/m*3 9.5 C 0 km/h
106 21-03-2010 21:04:02 9.5 C 7.83 g/m*3 9.5 C 0 km/h
107 21-03-2010 21:16:02 9.4 C 7.78 g/m*3 9.4 C 0 km/h
108 21-03-2010 21:28:02 9.3 C 7.46 g/m*3 9.3 C 0 km/h
109 21-03-2010 21:40:02 9.4 C 7.15 g/m*3 9.4 C 0 km/h
110 21-03-2010 21:52:01 9.4 C 7.05 g/m*3 9.4 C 0 km/h
111 21-03-2010 22:05:03 9.4 C 7.05 g/m*3 9.4 C 0 km/h
112 21-03-2010 22:17:03 9.3 C 7.1 g/m*3 9.3 C 0 km/h
113 21-03-2010 22:29:03 9.2 C 7.14 g/m*3 9.2 C 0 km/h
114 21-03-2010 22:41:03 9.1 C 7.19 g/m*3 9.1 C 0 km/h
115 21-03-2010 22:53:03 9.1 C 7.19 g/m*3 9.1 C 0 km/h
116 21-03-2010 23:05:03 8.9 C 7.27 g/m*3 8.9 C 0 km/h
117 21-03-2010 23:17:03 8.8 C 7.49 g/m*3 8.8 C 0 km/h
118 21-03-2010 23:29:03 8.6 C 7.48 g/m*3 8.6 C 0 km/h
119 21-03-2010 23:41:03 8.5 C 7.51 g/m*3 8.5 C 0 km/h
120 21-03-2010 23:53:04 8.5 C 7.6 g/m*3 8.5 C 0 km/h
121 22-03-2010 00:05:04 8.5 C 7.68 g/m*3 8.5 C 0 km/h
122 22-03-2010 00:17:04 8.5 C 7.68 g/m*3 8.5 C 0 km/h
123 22-03-2010 00:29:04 8.4 C 7.63 g/m*3 8.4 C 0 km/h
124 22-03-2010 00:41:04 8.3 C 7.67 g/m*3 8.3 C 0 km/h
125 22-03-2010 00:53:04 8.3 C 7.67 g/m*3 8.3 C 0 km/h
Sensor: Nr:Datum:Temp:Abs-Feuchte:Windchill:Wind:
Aussen-T/F 126 22-03-2010 01:05:04 8.3 C 7.67 g/m*3 8.3 C 0 km/h
127 22-03-2010 01:17:04 8.2 C 7.62 g/m*3 8.2 C 0 km/h
128 22-03-2010 01:29:04 8.2 C 7.62 g/m*3 8.2 C 0 km/h
129 22-03-2010 01:41:04 8.3 C 7.75 g/m*3 8.3 C 0 km/h
130 22-03-2010 01:53:04 8.3 C 7.75 g/m*3 8.3 C 0 km/h
131 22-03-2010 02:05:04 8.4 C 7.8 g/m*3 8.4 C 0 km/h
132 22-03-2010 02:17:04 8.2 C 7.7 g/m*3 8.2 C 0 km/h
133 22-03-2010 02:29:04 8.2 C 7.7 g/m*3 8.2 C 0 km/h
134 22-03-2010 02:41:04 8.3 C 7.75 g/m*3 8.3 C 0 km/h
135 22-03-2010 02:53:04 8.4 C 7.8 g/m*3 8.4 C 0 km/h
136 22-03-2010 03:05:04 8.4 C 7.8 g/m*3 8.4 C 0 km/h
137 22-03-2010 03:17:04 8.4 C 7.8 g/m*3 8.4 C 0 km/h
138 22-03-2010 03:29:04 8.4 C 7.8 g/m*3 8.4 C 0 km/h
139 22-03-2010 03:41:04 8.4 C 7.8 g/m*3 8.4 C 0 km/h
140 22-03-2010 03:53:04 8.4 C 7.8 g/m*3 8.4 C 0 km/h
141 22-03-2010 04:05:05 8.4 C 7.8 g/m*3 8.4 C 0 km/h
142 22-03-2010 04:17:05 8.4 C 7.8 g/m*3 8.4 C 0 km/h
143 22-03-2010 04:29:05 8.3 C 7.75 g/m*3 8.3 C 0 km/h
144 22-03-2010 04:41:05 8.2 C 7.7 g/m*3 8.2 C 0 km/h
145 22-03-2010 04:53:05 8.1 C 7.66 g/m*3 8.1 C 0 km/h
146 22-03-2010 05:05:05 8.1 C 7.66 g/m*3 8.1 C 0 km/h
147 22-03-2010 05:17:05 8.2 C 7.7 g/m*3 8.2 C 0 km/h
148 22-03-2010 05:29:05 8.2 C 7.7 g/m*3 8.2 C 0 km/h
149 22-03-2010 05:41:05 8.1 C 7.66 g/m*3 8.1 C 0 km/h
150 22-03-2010 05:53:01 8.1 C 7.66 g/m*3 8.1 C 0 km/h
Sensor: Nr:Datum:Temp:Abs-Feuchte:Windchill:Wind:
Aussen-T/F 151 22-03-2010 06:05:01 8.2 C 7.7 g/m*3 8.2 C 0 km/h
152 22-03-2010 06:17:02 8.2 C 7.7 g/m*3 8.2 C 0 km/h
153 22-03-2010 06:29:02 8.2 C 7.7 g/m*3 8.2 C 0 km/h
154 22-03-2010 06:41:01 8.1 C 7.66 g/m*3 8.1 C 0 km/h
155 22-03-2010 06:53:02 8.1 C 7.66 g/m*3 8.1 C 0 km/h
156 22-03-2010 07:05:01 8.2 C 7.7 g/m*3 8.2 C 0 km/h
157 22-03-2010 07:17:02 8.2 C 7.7 g/m*3 8.2 C 0 km/h
158 22-03-2010 07:29:02 8.3 C 7.84 g/m*3 8.3 C 0 km/h
159 22-03-2010 07:41:01 8.4 C 7.89 g/m*3 8.4 C 0 km/h
160 22-03-2010 07:53:01 8.5 C 7.94 g/m*3 8.5 C 0 km/h
161 22-03-2010 08:05:01 8.6 C 7.99 g/m*3 8.6 C 0 km/h
162 22-03-2010 08:17:02 8.8 C 8.09 g/m*3 8.8 C 0 km/h
163 22-03-2010 08:29:02 8.8 C 8.01 g/m*3 8.8 C 0 km/h
164 22-03-2010 08:41:01 8.9 C 8.06 g/m*3 8.9 C 0 km/h
165 22-03-2010 08:53:02 8.9 C 8.06 g/m*3 8.9 C 0 km/h
166 22-03-2010 09:05:01 8.9 C 7.97 g/m*3 8.9 C 0 km/h
167 22-03-2010 09:17:02 9 C 7.93 g/m*3 9 C 0 km/h
168 22-03-2010 09:29:02 9 C 7.93 g/m*3 9 C 0 km/h
169 22-03-2010 09:41:02 9.2 C 7.95 g/m*3 9.2 C 0 km/h
170 22-03-2010 09:53:02 9.3 C 8 g/m*3 9.3 C 0 km/h
171 22-03-2010 10:05:03 9.6 C 8.06 g/m*3 9.6 C 0 km/h
172 22-03-2010 10:17:02 10 C 8.08 g/m*3 10 C 0 km/h
173 22-03-2010 10:29:02 9.9 C 8.03 g/m*3 9.9 C 0 km/h
174 22-03-2010 10:41:02 9.5 C 7.65 g/m*3 9.5 C 0 km/h
175 22-03-2010 10:53:02 9.4 C 7.69 g/m*3 9.4 C 0 km/h
Sensor: Nr:Datum:Temp:Abs-Feuchte:Windchill:Wind:
Aussen-T/F 176 22-03-2010 11:05:02 9.5 C 7.92 g/m*3 9.5 C 0 km/h
177 22-03-2010 11:17:01 9.5 C 7.92 g/m*3 9.5 C 0 km/h
178 22-03-2010 11:29:01 9.5 C 7.83 g/m*3 9.5 C 0 km/h
179 22-03-2010 11:41:02 9.7 C 7.74 g/m*3 9.7 C 0 km/h
180 22-03-2010 11:53:02 10.2 C 7.8 g/m*3 10.2 C 0 km/h
181 22-03-2010 12:05:02 10.6 C 7.81 g/m*3 10.6 C 0 km/h
182 22-03-2010 12:17:01 10.7 C 7.76 g/m*3 10.7 C 0 km/h
183 22-03-2010 12:29:01 11 C 7.61 g/m*3 11 C 0 km/h
184 22-03-2010 12:41:02 11.1 C 7.45 g/m*3 11.1 C 0 km/h
185 22-03-2010 12:53:02 11.4 C 7.39 g/m*3 11.4 C 0 km/h
186 22-03-2010 13:05:02 11.5 C 7.23 g/m*3 11.5 C 0 km/h
187 22-03-2010 13:17:01 12.1 C 7.18 g/m*3 12.1 C 0 km/h
188 22-03-2010 13:29:01 12.4 C 6.66 g/m*3 12.4 C 0 km/h
189 22-03-2010 13:41:02 12.6 C 6.42 g/m*3 12.6 C 0 km/h
190 22-03-2010 13:53:01 12.6 C 6.31 g/m*3 12.6 C 0 km/h
191 22-03-2010 14:05:02 13.3 C 6.47 g/m*3 13.3 C 0 km/h
192 22-03-2010 14:17:02 14.2 C 6.11 g/m*3 14.2 C 0 km/h
193 22-03-2010 14:29:02 14.2 C 5.86 g/m*3 14.2 C 0 km/h
194 22-03-2010 14:41:02 14.5 C 5.72 g/m*3 14.5 C 0 km/h
195 22-03-2010 14:53:01 14.6 C 5.51 g/m*3 14.6 C 0 km/h
196 22-03-2010 15:05:02 14.2 C 5.49 g/m*3 14.2 C 0 km/h
197 22-03-2010 15:17:02 14 C 5.43 g/m*3 14 C 0 km/h
198 22-03-2010 15:29:02 14 C 5.31 g/m*3 14 C 0 km/h
199 22-03-2010 15:41:01 14.6 C 5.51 g/m*3 14.6 C 0 km/h
200 22-03-2010 15:53:02 14.9 C 5.23 g/m*3 14.9 C 0 km/h
Sensor: Nr:Datum:Temp:Abs-Feuchte:Windchill:Wind:
Aussen-T/F 201 22-03-2010 16:05:01 14.4 C 5.07 g/m*3 14.4 C 0 km/h
202 22-03-2010 16:17:02 14.3 C 5.28 g/m*3 14.3 C 0 km/h
203 22-03-2010 16:29:02 14.5 C 5.1 g/m*3 14.5 C 0 km/h
204 22-03-2010 16:41:01 15.2 C 5.32 g/m*3 15.2 C 0 km/h
205 22-03-2010 16:53:03 15.2 C 5.45 g/m*3 15.2 C 0 km/h
206 22-03-2010 17:05:02 14.9 C 5.35 g/m*3 14.9 C 0 km/h
207 22-03-2010 17:17:02 14.2 C 5.01 g/m*3 14.2 C 0 km/h
208 22-03-2010 17:29:02 13.9 C 4.8 g/m*3 13.9 C 0 km/h
209 22-03-2010 17:41:02 13.4 C 4.77 g/m*3 13.4 C 0 km/h
210 22-03-2010 17:53:02 13.2 C 4.82 g/m*3 13.2 C 0 km/h
211 22-03-2010 18:05:01 13 C 4.88 g/m*3 13 C 0 km/h
212 22-03-2010 18:17:02 12.9 C 5.3 g/m*3 12.9 C 0 km/h
213 22-03-2010 18:29:02 12.4 C 5.35 g/m*3 12.4 C 0 km/h
214 22-03-2010 18:41:02 11.8 C 5.58 g/m*3 11.8 C 0 km/h
215 22-03-2010 18:53:02 11.3 C 5.61 g/m*3 11.3 C 0 km/h
216 22-03-2010 19:05:01 10.5 C 5.72 g/m*3 10.5 C 0 km/h
217 22-03-2010 19:17:01 10 C 5.64 g/m*3 10 C 0 km/h
218 22-03-2010 19:29:01 9.7 C 5.72 g/m*3 9.7 C 0 km/h
219 22-03-2010 19:41:02 9.5 C 5.83 g/m*3 9.5 C 0 km/h
220 22-03-2010 19:53:02 9.2 C 5.8 g/m*3 9.2 C 0 km/h
221 22-03-2010 20:05:02 9 C 5.99 g/m*3 9 C 0 km/h
222 22-03-2010 20:17:02 8.7 C 6.14 g/m*3 8.7 C 0 km/h
223 22-03-2010 20:29:02 8.7 C 6.23 g/m*3 8.7 C 0 km/h
224 22-03-2010 20:41:02 8.5 C 6.15 g/m*3 8.5 C 0 km/h
225 22-03-2010 20:53:02 8.3 C 6.07 g/m*3 8.3 C 0 km/h
Sensor: Nr:Datum:Temp:Abs-Feuchte:Windchill:Wind:
Aussen-T/F 226 22-03-2010 21:05:02 8.1 C 6.07 g/m*3 8.1 C 0 km/h
227 22-03-2010 21:17:02 7.8 C 6.12 g/m*3 7.8 C 0 km/h
228 22-03-2010 21:29:02 7.4 C 6.04 g/m*3 7.4 C 0 km/h
229 22-03-2010 21:41:02 7.3 C 6.08 g/m*3 7.3 C 0 km/h
230 22-03-2010 21:53:02 7.1 C 6.08 g/m*3 7.1 C 0 km/h
231 22-03-2010 22:05:02 6.9 C 6.08 g/m*3 6.9 C 0 km/h
232 22-03-2010 22:17:02 6.6 C 5.96 g/m*3 6.6 C 0 km/h
233 22-03-2010 22:29:02 6.5 C 6 g/m*3 6.5 C 0 km/h
234 22-03-2010 22:41:02 6.2 C 5.88 g/m*3 6.2 C 0 km/h
235 22-03-2010 22:54:02 6 C 5.88 g/m*3 6 C 0 km/h
236 22-03-2010 23:06:02 6 C 5.95 g/m*3 6 C 0 km/h
237 22-03-2010 23:18:03 5.7 C 5.91 g/m*3 5.7 C 0 km/h
238 22-03-2010 23:30:03 5.6 C 5.87 g/m*3 5.6 C 0 km/h
239 22-03-2010 23:42:03 5.6 C 5.94 g/m*3 5.6 C 0 km/h
240 22-03-2010 23:54:03 5.4 C 5.86 g/m*3 5.4 C 0 km/h

Legende:
   Min
   Max


Maximal/Minimal-Werte vom 21.03.2010 - 22.03.2010

Sensor Min Max Avg
Temp
(Aussen-T/F)
5.4 °C
22-03-2010  23:54:03
15.2 °C
22-03-2010  16:41:01
10.5 °C
Abs-Feuchte
(Aussen-T/F)
4.77 g/m*3
22-03-2010  17:41:02
9.96 g/m*3
21-03-2010  08:16:04
7.73 g/m*3
Windchill
(Aussen-T/F)
5.4 C
22-03-2010  23:54:03
15.2 C
22-03-2010  16:41:01
10.45 C

Die Daten stammen von einer Davis Vantage Pro 2 Wetter-Station und werden unter Linux mit der Software wview2wettercgi und aufbereitet. Alle Angaben erfolgen ohne Gewähr für ihre Vollständigkeit oder Richtigkeit.
Kontakt: Rainer Krienke krienke@uni-koblenz.de . Meine Webseiten an der Uni Koblenz oder privat.
Version: $Revision: 0.78 $